Terminal Aerodrome Forecast
Issued by NWS Wakefield, VA

Home | Current Version | Previous Version | Text Only | Print | Product List | Glossary On
Versions: 1 2 3 4 5 6 7 8 9 10 11 12 13 14 15 16 17 18 19 20 21 22 23 24 25
000
FTUS41 KAKQ 171140
TAFECG
TAF
KECG 171140Z 1712/1812 35005KT P6SM BKN250
     FM171500 02011KT P6SM VCSH BKN250
     FM171800 01014G21KT 4SM -RASN OVC012
     FM172100 01012G20KT 2SM -SN BR OVC012
     FM180000 36012G20KT 1 1/2SM -SN BR OVC008
     FM180500 34014G22KT P6SM OVC020
     FM180800 33012KT P6SM BKN050
     FM181000 32012KT P6SM SCT100=

USA.gov is the U.S. government's official web portal to all federal, state and local government web resources and services.